createdAt,value
2018-06-21T03:01:02.997Z,93.35
2018-06-21T03:02:04.879Z,94.36
2018-06-21T03:03:05.520Z,94.31
2018-06-21T03:04:03.920Z,93.88
2018-06-21T03:05:04.655Z,93.93
2018-06-21T03:06:01.872Z,93.93
2018-06-21T03:07:01.685Z,94.31
2018-06-21T03:08:01.755Z,94.07
2018-06-21T03:09:01.837Z,93.79
2018-06-21T03:10:02.045Z,93.98
2018-06-21T03:11:02.384Z,93.74
2018-06-21T03:12:02.492Z,93.98
2018-06-21T03:13:02.608Z,93.74
2018-06-21T03:14:02.937Z,93.84
2018-06-21T03:15:03.029Z,93.45
2018-06-21T03:16:03.264Z,93.55
2018-06-21T03:17:03.437Z,93.84
2018-06-21T03:18:03.644Z,93.84
2018-06-21T03:19:03.689Z,93.64
2018-06-21T03:20:03.914Z,93.55
2018-06-21T03:21:04.067Z,93.35
2018-06-21T03:22:04.415Z,93.74
2018-06-21T03:23:04.484Z,93.74
2018-06-21T03:24:04.783Z,94.31
2018-06-21T03:25:04.931Z,93.74
2018-06-21T03:26:05.028Z,93.84
2018-06-21T03:27:05.125Z,94.31
2018-06-21T03:28:05.565Z,94.89
2018-06-21T03:29:05.618Z,94.12
2018-06-21T03:30:05.896Z,94.70
2018-06-21T03:31:06.136Z,94.50
2018-06-21T03:32:06.144Z,93.74
2018-06-21T03:33:06.390Z,93.93
2018-06-21T03:34:06.708Z,93.84
2018-06-21T03:35:06.777Z,93.74
2018-06-21T03:36:06.903Z,93.45
2018-06-21T03:37:07.073Z,93.45
2018-06-21T03:38:07.239Z,93.35
2018-06-21T03:39:07.523Z,93.64
2018-06-21T03:40:07.579Z,93.64
2018-06-21T03:41:08.049Z,93.93
2018-06-21T03:42:07.935Z,93.55
2018-06-21T03:43:08.257Z,93.64
2018-06-21T03:44:08.412Z,93.74
2018-06-21T03:45:08.488Z,94.12
2018-06-21T03:46:08.629Z,94.31
2018-06-21T03:47:08.864Z,93.93
2018-06-21T03:48:09.017Z,94.12
2018-06-21T03:49:09.258Z,94.02
2018-06-21T03:50:09.502Z,93.84
2018-06-21T03:51:09.638Z,94.31
2018-06-21T03:52:09.659Z,94.02
2018-06-21T03:53:09.828Z,94.50
2018-06-21T03:54:09.974Z,94.70
2018-06-21T03:55:10.209Z,94.60
2018-06-21T03:56:10.379Z,94.02
2018-06-21T03:57:10.564Z,93.93
2018-06-21T03:58:10.653Z,93.74
2018-06-21T03:59:10.848Z,93.93
2018-06-21T04:00:11.137Z,94.21
2018-06-21T04:01:11.348Z,94.31
2018-06-21T04:02:11.555Z,93.50
2018-06-21T04:03:11.645Z,93.55
2018-06-21T04:04:11.747Z,94.31
2018-06-21T04:05:11.949Z,93.64
2018-06-21T04:06:12.199Z,94.21
2018-06-21T04:07:12.363Z,94.02
2018-06-21T04:08:12.701Z,93.79
2018-06-21T04:09:12.856Z,93.30
2018-06-21T04:10:13.077Z,92.97
2018-06-21T04:11:13.205Z,93.59
2018-06-21T04:12:13.271Z,93.26
2018-06-21T04:13:13.531Z,92.92
2018-06-21T04:14:13.589Z,93.59
2018-06-21T04:15:14.002Z,93.69
2018-06-21T04:16:13.973Z,93.59
2018-06-21T04:17:14.151Z,93.79
2018-06-21T04:18:14.690Z,93.74
2018-06-21T04:19:14.599Z,93.30
2018-06-21T04:20:14.765Z,93.40
2018-06-21T04:21:14.934Z,93.30
2018-06-21T04:22:15.040Z,93.30
2018-06-21T04:23:15.426Z,93.40
2018-06-21T04:24:15.524Z,93.40
2018-06-21T04:25:15.728Z,93.59
2018-06-21T04:26:15.928Z,93.79
2018-06-21T04:27:16.085Z,93.59
2018-06-21T04:28:16.305Z,93.59
2018-06-21T04:29:16.522Z,93.50
2018-06-21T04:30:16.656Z,93.50
2018-06-21T04:31:16.780Z,93.59
2018-06-21T04:32:16.975Z,93.79
2018-06-21T04:33:17.168Z,93.50
2018-06-21T04:34:17.363Z,93.79
2018-06-21T04:35:17.357Z,93.50
2018-06-21T04:36:17.830Z,93.59
2018-06-21T04:37:18.039Z,93.88
2018-06-21T04:38:18.024Z,94.26
2018-06-21T04:39:18.124Z,94.36
2018-06-21T04:40:18.264Z,94.17
2018-06-21T04:41:18.526Z,94.26
2018-06-21T04:42:18.687Z,93.98
2018-06-21T04:43:18.928Z,94.17
2018-06-21T04:44:19.175Z,94.17
2018-06-21T04:45:19.162Z,94.07
2018-06-21T04:46:19.391Z,93.98
2018-06-21T04:47:19.471Z,93.83
2018-06-21T04:48:19.643Z,93.54
2018-06-21T04:49:20.086Z,94.31
2018-06-21T04:50:20.179Z,94.02
2018-06-21T04:51:20.243Z,93.83
2018-06-21T04:52:20.470Z,93.93
2018-06-21T04:53:20.609Z,94.02
2018-06-21T04:54:20.768Z,93.93
2018-06-21T04:55:20.863Z,93.93
2018-06-21T04:56:21.134Z,94.12
2018-06-21T04:57:21.343Z,94.21
2018-06-21T04:58:21.629Z,94.21
2018-06-21T04:59:21.703Z,94.21
2018-06-21T05:00:21.945Z,94.40
2018-06-21T05:01:22.242Z,94.40
2018-06-21T05:02:22.284Z,94.89
2018-06-21T05:03:22.462Z,94.55
2018-06-21T05:04:22.752Z,95.12
2018-06-21T05:05:22.841Z,94.74
2018-06-21T05:06:22.953Z,94.93
2018-06-21T05:07:23.128Z,94.07
2018-06-21T05:08:23.392Z,94.84
2018-06-21T05:09:23.517Z,94.35
2018-06-21T05:10:23.684Z,95.03
2018-06-21T05:11:23.787Z,93.98
2018-06-21T05:12:23.971Z,94.12
2018-06-21T05:13:24.174Z,94.02
2018-06-21T05:14:24.292Z,93.16
2018-06-21T05:15:24.485Z,92.97
2018-06-21T05:16:24.684Z,93.26
2018-06-21T05:17:24.824Z,92.68
2018-06-21T05:18:25.049Z,92.77
2018-06-21T05:19:25.209Z,92.68
2018-06-21T05:20:25.318Z,93.11
2018-06-21T05:21:25.477Z,92.63
2018-06-21T05:22:25.707Z,92.63
2018-06-21T05:23:25.837Z,91.86
2018-06-21T05:24:26.053Z,91.86
2018-06-21T05:25:26.270Z,92.39
2018-06-21T05:26:26.413Z,92.19
2018-06-21T05:27:26.659Z,91.67
2018-06-21T05:28:26.795Z,91.42
2018-06-21T05:29:26.921Z,91.42
2018-06-21T05:30:27.104Z,91.05
2018-06-21T05:31:27.304Z,90.85
2018-06-21T05:32:27.524Z,90.85
2018-06-21T05:33:27.739Z,91.14
2018-06-21T05:34:27.858Z,90.32
2018-06-21T05:35:28.011Z,90.13
2018-06-21T05:36:28.164Z,90.13
2018-06-21T05:37:28.415Z,90.22
2018-06-21T05:38:28.492Z,90.52
2018-06-21T05:39:28.703Z,90.13
2018-06-21T05:40:28.934Z,89.84
2018-06-21T05:41:29.063Z,90.27
2018-06-21T05:42:29.247Z,89.79
2018-06-21T05:43:29.424Z,88.64
2018-06-21T05:44:29.617Z,88.35
2018-06-21T05:45:29.713Z,88.20
2018-06-21T05:46:30.008Z,88.20
2018-06-21T05:47:30.658Z,88.20
2018-06-21T05:48:30.247Z,88.53
2018-06-21T05:49:30.421Z,87.86
2018-06-21T05:50:30.637Z,86.80
2018-06-21T05:51:30.732Z,86.90
2018-06-21T05:52:30.979Z,86.80
2018-06-21T05:53:31.083Z,86.22
2018-06-21T05:54:31.312Z,86.27
2018-06-21T05:55:31.433Z,85.31
2018-06-21T05:56:31.697Z,85.69
2018-06-21T05:57:31.849Z,84.77
2018-06-21T05:58:32.051Z,83.96
2018-06-21T05:59:32.163Z,84.48
2018-06-21T06:00:32.431Z,83.42
2018-06-21T06:01:32.501Z,82.56
2018-06-21T06:02:32.692Z,82.46
2018-06-21T06:03:32.885Z,83.33
2018-06-21T06:04:33.015Z,83.81
2018-06-21T06:05:33.217Z,83.04
2018-06-21T06:06:33.313Z,84.00
2018-06-21T06:07:33.622Z,83.33
2018-06-21T06:08:33.828Z,83.81
2018-06-21T06:09:33.872Z,83.33
2018-06-21T06:10:34.052Z,82.85
2018-06-21T06:11:34.322Z,82.98
2018-06-21T06:12:34.436Z,81.83
2018-06-21T06:13:34.586Z,82.31
2018-06-21T06:14:34.762Z,82.41
2018-06-21T06:15:34.902Z,81.63
2018-06-21T06:16:35.051Z,82.02
2018-06-21T06:17:35.261Z,81.73
2018-06-21T06:18:35.439Z,81.73
2018-06-21T06:19:35.540Z,82.21
2018-06-21T06:20:35.673Z,82.02
2018-06-21T06:21:35.859Z,81.93
2018-06-21T06:22:36.103Z,81.58
2018-06-21T06:23:36.189Z,81.39
2018-06-21T06:24:36.380Z,80.91
2018-06-21T06:25:36.500Z,80.91
2018-06-21T06:26:36.838Z,80.43
2018-06-21T06:27:36.973Z,80.43
2018-06-21T06:28:37.188Z,80.81
2018-06-21T06:29:37.315Z,81.68
2018-06-21T06:30:37.467Z,81.24
2018-06-21T06:31:37.634Z,81.24
2018-06-21T06:32:37.800Z,79.98
2018-06-21T06:33:38.001Z,79.98
2018-06-21T06:34:38.257Z,79.11
2018-06-21T06:35:38.302Z,78.38
2018-06-21T06:36:38.467Z,77.96
2018-06-21T06:37:38.723Z,75.30
2018-06-21T06:38:38.813Z,76.07
2018-06-21T06:39:38.983Z,76.50
2018-06-21T06:40:39.071Z,75.43
2018-06-21T06:41:39.259Z,75.76
2018-06-21T06:42:39.596Z,74.41
2018-06-21T06:43:39.667Z,74.21
2018-06-21T06:44:39.792Z,73.06
2018-06-21T06:45:40.017Z,73.83
2018-06-21T06:46:40.222Z,72.38
2018-06-21T06:47:40.354Z,71.90
2018-06-21T06:48:40.660Z,72.58
2018-06-21T06:49:40.789Z,72.28
2018-06-21T06:50:40.900Z,71.90
2018-06-21T06:51:41.020Z,72.48
2018-06-21T06:52:41.273Z,71.90
2018-06-21T06:53:41.491Z,71.51
2018-06-21T06:54:41.643Z,71.90
2018-06-21T06:55:41.812Z,70.94
2018-06-21T06:56:41.994Z,71.42
2018-06-21T06:57:42.117Z,71.51
2018-06-21T06:58:42.356Z,71.36
2018-06-21T06:59:42.445Z,70.00
2018-06-21T07:00:42.616Z,69.36
2018-06-21T07:01:42.770Z,68.68
2018-06-21T07:02:43.016Z,68.68
2018-06-21T07:03:43.211Z,67.94
2018-06-21T07:04:43.311Z,68.24
2018-06-21T07:05:43.518Z,66.98
2018-06-21T07:06:43.698Z,67.85
2018-06-21T07:07:43.884Z,66.94
2018-06-21T07:08:44.144Z,66.94
2018-06-21T07:09:44.199Z,67.33
2018-06-21T07:10:44.408Z,67.08
2018-06-21T07:11:44.597Z,67.24
2018-06-21T07:12:44.734Z,67.66
2018-06-21T07:13:44.912Z,67.56
2018-06-21T07:14:45.161Z,66.88
2018-06-21T07:15:45.237Z,67.17
2018-06-21T07:16:45.346Z,67.36
2018-06-21T07:17:45.678Z,66.98
2018-06-21T07:18:45.742Z,67.66
2018-06-21T07:19:45.943Z,66.88
2018-06-21T07:20:46.079Z,65.63
2018-06-21T07:21:46.301Z,66.01
2018-06-21T07:22:46.393Z,65.75
2018-06-21T07:23:46.712Z,64.89
2018-06-21T07:24:46.804Z,64.50
2018-06-21T07:25:47.018Z,64.50
2018-06-21T07:26:47.130Z,64.34
2018-06-21T07:27:47.416Z,64.14
2018-06-21T07:28:47.611Z,63.66
2018-06-21T07:29:47.798Z,62.50
2018-06-21T07:30:47.989Z,61.92
2018-06-21T07:31:48.071Z,63.46
2018-06-21T07:32:48.201Z,63.46
2018-06-21T07:33:48.416Z,62.50
2018-06-21T07:34:48.474Z,62.11
2018-06-21T07:35:48.756Z,63.56
2018-06-21T07:36:48.888Z,64.14
2018-06-21T07:37:49.078Z,61.43
2018-06-21T07:38:49.357Z,59.63
2018-06-21T07:39:49.434Z,59.36
2018-06-21T07:40:49.529Z,58.78
2018-06-21T07:41:49.680Z,60.24
2018-06-21T07:42:49.980Z,60.52
2018-06-21T07:43:50.127Z,62.07
2018-06-21T07:44:50.296Z,60.91
2018-06-21T07:45:50.432Z,60.62
2018-06-21T07:46:50.599Z,59.75
2018-06-21T07:47:50.858Z,58.59
2018-06-21T07:48:51.090Z,58.39
2018-06-21T07:49:51.232Z,58.33
2018-06-21T07:50:51.329Z,59.36
2018-06-21T07:51:51.493Z,59.59
2018-06-21T07:52:51.720Z,57.55
2018-06-21T07:53:51.920Z,57.48
2018-06-21T07:54:52.025Z,55.74
2018-06-21T07:55:52.163Z,55.52
2018-06-21T07:56:52.361Z,56.87
2018-06-21T07:57:52.569Z,54.74
2018-06-21T07:58:52.668Z,54.81
2018-06-21T07:59:52.855Z,55.58
2018-06-21T08:00:53.078Z,55.98
2018-06-21T08:01:53.234Z,55.49
2018-06-21T08:02:53.386Z,55.40
2018-06-21T08:03:53.611Z,56.46
2018-06-21T08:04:53.739Z,54.71
2018-06-21T08:05:53.985Z,54.39
2018-06-21T08:06:54.230Z,53.72
2018-06-21T08:07:54.345Z,54.59
2018-06-21T08:08:54.482Z,54.43
2018-06-21T08:09:54.675Z,53.87
2018-06-21T08:10:54.820Z,53.58
2018-06-21T08:11:55.039Z,54.26
2018-06-21T08:12:55.173Z,54.06
2018-06-21T08:13:55.412Z,54.26
2018-06-21T08:14:55.558Z,53.97
2018-06-21T08:15:55.669Z,53.77
2018-06-21T08:16:55.887Z,54.35
2018-06-21T08:17:56.105Z,53.80
2018-06-21T08:18:56.294Z,52.15
2018-06-21T08:19:56.474Z,51.37
2018-06-21T08:20:56.558Z,50.79
2018-06-21T08:21:56.819Z,52.34
2018-06-21T08:22:56.976Z,51.50
2018-06-21T08:23:57.092Z,53.53
2018-06-21T08:24:57.283Z,51.62
2018-06-21T08:25:57.490Z,51.75
2018-06-21T08:26:57.614Z,51.55
2018-06-21T08:27:57.806Z,50.02
2018-06-21T08:28:57.976Z,48.97
2018-06-21T08:29:58.098Z,49.46
2018-06-21T08:30:58.348Z,49.24
2018-06-21T08:31:58.568Z,49.37
2018-06-21T08:32:58.641Z,48.00
2018-06-21T08:33:58.949Z,47.71
2018-06-21T08:34:59.008Z,47.93
2018-06-21T08:35:59.258Z,47.32
2018-06-21T08:36:59.395Z,47.81
2018-06-21T08:37:59.646Z,48.95
2018-06-21T08:39:00.233Z,49.24
2018-06-21T08:40:00.029Z,48.27
2018-06-21T08:41:00.239Z,49.73
2018-06-21T08:42:00.326Z,50.56
2018-06-21T08:43:00.541Z,51.81
2018-06-21T08:44:00.710Z,50.53
2018-06-21T08:45:00.785Z,53.05
2018-06-21T08:46:01.122Z,53.56
2018-06-21T08:47:01.273Z,53.66
2018-06-21T08:48:01.434Z,53.56
2018-06-21T08:49:01.530Z,52.59
2018-06-21T08:50:01.825Z,52.40
2018-06-21T08:51:02.044Z,51.84
2018-06-21T08:52:02.216Z,51.26
2018-06-21T08:53:02.330Z,51.55
2018-06-21T08:54:02.562Z,51.65
2018-06-21T08:55:02.822Z,52.20
2018-06-21T08:56:02.891Z,52.28
2018-06-21T08:57:03.105Z,53.92
2018-06-21T08:58:03.284Z,54.09
2018-06-21T08:59:03.483Z,53.70
2018-06-21T09:00:03.631Z,53.61
2018-06-21T09:01:03.850Z,54.06
2018-06-21T09:02:03.985Z,55.42
2018-06-21T09:03:04.102Z,56.36
2018-06-21T09:04:04.274Z,56.62
2018-06-21T09:05:04.504Z,57.88
2018-06-21T09:06:04.699Z,58.72
2018-06-21T09:07:04.823Z,59.50
2018-06-21T09:08:05.050Z,59.56
2018-06-21T09:09:05.158Z,59.40
2018-06-21T09:10:05.342Z,60.05
2018-06-21T09:11:05.599Z,60.53
2018-06-21T09:12:05.709Z,60.72
2018-06-21T09:13:05.994Z,61.40
2018-06-21T09:14:06.217Z,62.08
2018-06-21T09:15:06.296Z,62.76
2018-06-21T09:16:06.440Z,61.98
2018-06-21T09:17:06.595Z,61.98
2018-06-21T09:18:06.809Z,62.76
2018-06-21T09:19:06.916Z,62.15
2018-06-21T09:20:07.076Z,62.24
2018-06-21T09:21:07.293Z,62.53
2018-06-21T09:22:07.543Z,62.34
2018-06-21T09:23:07.739Z,62.56
2018-06-21T09:24:07.872Z,61.15
2018-06-21T09:25:08.027Z,60.95
2018-06-21T09:26:08.220Z,61.05
2018-06-21T09:27:08.392Z,60.59
2018-06-21T09:28:08.467Z,60.78
2018-06-21T09:29:08.640Z,60.43
2018-06-21T09:30:08.913Z,58.42
2018-06-21T09:31:09.000Z,59.00
2018-06-21T09:32:09.156Z,58.84
2018-06-21T09:33:09.367Z,56.81
2018-06-21T09:34:09.502Z,57.29
2018-06-21T09:35:09.684Z,58.16
2018-06-21T09:36:09.829Z,58.26
2018-06-21T09:37:10.011Z,57.09
2018-06-21T09:38:10.336Z,56.87
2018-06-21T09:39:10.421Z,57.84
2018-06-21T09:40:10.574Z,58.23
2018-06-21T09:41:10.726Z,59.10
2018-06-21T09:42:10.910Z,59.27
2018-06-21T09:43:11.165Z,59.36
2018-06-21T09:44:11.235Z,58.88
2018-06-21T09:45:11.486Z,60.40
2018-06-21T09:46:11.608Z,60.66
2018-06-21T09:47:11.830Z,61.43
2018-06-21T09:48:12.029Z,62.27
2018-06-21T09:49:12.175Z,63.60
2018-06-21T09:50:12.410Z,64.27
2018-06-21T09:51:12.643Z,64.53
2018-06-21T09:52:12.788Z,65.50
2018-06-21T09:53:12.900Z,66.82
2018-06-21T09:54:13.050Z,67.78
2018-06-21T09:55:13.228Z,68.26
2018-06-21T09:56:13.439Z,67.40
2018-06-21T09:57:13.635Z,67.59
2018-06-21T09:58:13.808Z,67.40
2018-06-21T09:59:13.945Z,67.30
2018-06-21T10:00:14.158Z,67.40
2018-06-21T10:01:14.343Z,67.30
2018-06-21T10:02:14.497Z,67.14
2018-06-21T10:03:14.607Z,67.14
2018-06-21T10:04:14.827Z,66.85
2018-06-21T10:05:14.931Z,67.24
2018-06-21T10:06:15.163Z,67.43
2018-06-21T10:07:15.342Z,67.43
2018-06-21T10:08:15.492Z,67.52
2018-06-21T10:09:15.664Z,67.30
2018-06-21T10:10:15.807Z,67.40
2018-06-21T10:11:16.012Z,67.40
2018-06-21T10:12:16.127Z,67.69
2018-06-21T10:13:16.322Z,68.55
2018-06-21T10:14:16.539Z,68.55
2018-06-21T10:15:16.654Z,67.78
2018-06-21T10:16:16.859Z,67.59
2018-06-21T10:17:17.021Z,68.46
2018-06-21T10:18:17.270Z,69.39
2018-06-21T10:19:17.401Z,70.45
2018-06-21T10:20:17.587Z,72.25
2018-06-21T10:21:17.774Z,74.33
2018-06-21T10:22:17.923Z,76.51
2018-06-21T10:23:18.113Z,77.83
2018-06-21T10:24:18.520Z,78.75
2018-06-21T10:25:19.131Z,80.73
2018-06-21T10:26:19.396Z,82.52
2018-06-21T10:27:19.006Z,84.40
2018-06-21T10:28:19.220Z,85.46
2018-06-21T10:29:19.304Z,86.04
2018-06-21T10:30:20.151Z,85.94
2018-06-21T10:31:19.500Z,86.90
2018-06-21T10:32:19.756Z,85.98
2018-06-21T10:33:19.919Z,86.65
2018-06-21T10:34:20.645Z,85.44
2018-06-21T10:35:20.142Z,85.44
2018-06-21T10:36:20.388Z,85.16
2018-06-21T10:37:20.582Z,85.54
2018-06-21T10:38:20.816Z,84.39
2018-06-21T10:39:20.977Z,83.37
2018-06-21T10:40:21.200Z,84.23
2018-06-21T10:41:21.369Z,84.66
2018-06-21T10:42:21.586Z,83.75
2018-06-21T10:43:21.597Z,83.75
2018-06-21T10:44:21.815Z,83.56
2018-06-21T10:45:21.988Z,84.23
2018-06-21T10:46:22.297Z,84.58
2018-06-21T10:47:22.490Z,83.33
2018-06-21T10:48:22.731Z,84.48
2018-06-21T10:49:23.889Z,84.97
2018-06-21T10:50:22.885Z,85.16
2018-06-21T10:51:23.077Z,85.16
2018-06-21T10:52:23.195Z,85.35
2018-06-21T10:53:23.409Z,85.49
2018-06-21T10:54:23.542Z,85.39
2018-06-21T10:55:23.800Z,83.37
2018-06-21T10:56:24.073Z,83.12
2018-06-21T10:57:24.202Z,82.54
2018-06-21T10:58:24.315Z,82.01
2018-06-21T10:59:24.580Z,80.69
2018-06-21T11:00:24.704Z,77.78
2018-06-21T11:01:24.942Z,73.36
2018-06-21T11:02:25.041Z,70.11
2018-06-21T11:03:25.246Z,68.70
2018-06-21T11:04:25.379Z,68.70
2018-06-21T11:05:25.637Z,69.12
2018-06-21T11:06:25.933Z,68.50
2018-06-21T11:07:25.817Z,67.34
2018-06-21T11:08:26.102Z,67.11
2018-06-21T11:09:26.348Z,67.40
2018-06-21T11:10:26.498Z,68.05
2018-06-21T11:11:27.034Z,68.27
2018-06-21T11:12:26.909Z,67.40
2018-06-21T11:13:27.000Z,67.46
2018-06-21T11:14:27.166Z,67.21
2018-06-21T11:15:28.147Z,66.34
2018-06-21T11:16:27.561Z,64.89
2018-06-21T11:17:27.711Z,64.56
2018-06-21T11:18:27.944Z,65.82
2018-06-21T11:19:28.076Z,66.02
2018-06-21T11:20:28.316Z,66.11
2018-06-21T11:21:28.428Z,67.08
2018-06-21T11:22:28.586Z,66.60
2018-06-21T11:23:28.782Z,66.75
2018-06-21T11:24:28.952Z,67.33
2018-06-21T11:25:29.109Z,67.63
2018-06-21T11:26:29.228Z,67.88
2018-06-21T11:27:29.519Z,68.11
2018-06-21T11:28:29.725Z,67.43
2018-06-21T11:29:29.855Z,67.91
2018-06-21T11:30:30.026Z,68.63
2018-06-21T11:31:30.138Z,67.95
2018-06-21T11:32:30.396Z,66.05
2018-06-21T11:33:30.546Z,64.69
2018-06-21T11:34:30.849Z,60.49
2018-06-21T11:35:30.906Z,57.32
2018-06-21T11:36:31.142Z,56.11
2018-06-21T11:37:31.247Z,56.50
2018-06-21T11:38:31.400Z,52.25
2018-06-21T11:39:31.609Z,50.80
2018-06-21T11:40:31.842Z,49.85
2018-06-21T11:41:32.079Z,48.03
2018-06-21T11:42:32.248Z,48.17
2018-06-21T11:43:32.380Z,48.17
2018-06-21T11:44:32.581Z,47.71
2018-06-21T11:45:32.883Z,45.57
2018-06-21T11:46:32.874Z,43.04
2018-06-21T11:47:33.135Z,43.91
2018-06-21T11:48:33.333Z,43.71
2018-06-21T11:49:33.589Z,43.64
2018-06-21T11:50:33.639Z,43.37
2018-06-21T11:51:33.846Z,41.91
2018-06-21T11:52:34.043Z,39.98
2018-06-21T11:53:34.265Z,41.08
2018-06-21T11:54:34.347Z,42.40
2018-06-21T11:55:34.538Z,44.81
2018-06-21T11:56:34.732Z,46.14
2018-06-21T11:57:34.882Z,46.31
2018-06-21T11:58:35.050Z,45.90
2018-06-21T11:59:35.237Z,47.81
2018-06-21T12:00:35.364Z,50.35
2018-06-21T12:01:35.532Z,51.59
2018-06-21T12:02:35.757Z,52.68
2018-06-21T12:03:36.055Z,51.79
2018-06-21T12:04:36.138Z,49.15
2018-06-21T12:05:36.290Z,49.00
2018-06-21T12:06:36.479Z,46.18
2018-06-21T12:07:36.712Z,45.94
2018-06-21T12:08:36.855Z,45.18
2018-06-21T12:09:36.987Z,45.08
2018-06-21T12:10:37.140Z,42.86
2018-06-21T12:11:37.310Z,41.13
2018-06-21T12:12:37.558Z,40.25
2018-06-21T12:13:37.694Z,39.88
2018-06-21T12:14:37.913Z,39.29
2018-06-21T12:15:37.996Z,39.78
2018-06-21T12:16:38.246Z,40.08
2018-06-21T12:17:38.396Z,39.00
2018-06-21T12:18:38.605Z,38.69
2018-06-21T12:19:38.744Z,38.67
2018-06-21T12:20:39.002Z,39.12
2018-06-21T12:21:39.145Z,41.24
2018-06-21T12:22:39.325Z,40.83
2018-06-21T12:23:39.472Z,42.03
2018-06-21T12:24:39.682Z,43.06
2018-06-21T12:25:39.849Z,43.82
2018-06-21T12:26:40.060Z,43.86
2018-06-21T12:27:40.301Z,43.51
2018-06-21T12:28:40.361Z,42.44
2018-06-21T12:29:40.643Z,42.13
2018-06-21T12:30:41.045Z,42.44
2018-06-21T12:31:41.062Z,40.60
2018-06-21T12:32:41.227Z,40.81
2018-06-21T12:33:41.363Z,40.52
2018-06-21T12:34:41.634Z,40.34
2018-06-21T12:35:41.729Z,39.90
2018-06-21T12:36:41.981Z,39.14
2018-06-21T12:37:42.109Z,38.18
2018-06-21T12:38:42.355Z,35.65
2018-06-21T12:39:42.496Z,36.04
2018-06-21T12:40:42.686Z,36.25
2018-06-21T12:41:42.904Z,35.86
2018-06-21T12:42:43.123Z,35.18
2018-06-21T12:43:43.380Z,34.63
2018-06-21T12:44:43.415Z,35.20
2018-06-21T12:45:43.623Z,34.22
2018-06-21T12:46:43.822Z,31.41
2018-06-21T12:47:43.987Z,30.26
2018-06-21T12:48:44.250Z,29.38
2018-06-21T12:49:44.437Z,28.89
2018-06-21T12:50:44.578Z,28.11
2018-06-21T12:51:44.793Z,28.40
2018-06-21T12:52:44.995Z,28.19
2018-06-21T12:53:45.116Z,28.97
2018-06-21T12:54:45.366Z,29.72
2018-06-21T12:55:45.547Z,28.86
2018-06-21T12:56:45.650Z,27.48
2018-06-21T12:57:45.878Z,29.30
2018-06-21T12:58:46.058Z,31.90
2018-06-21T12:59:46.280Z,32.57
2018-06-21T13:00:46.483Z,32.15
2018-06-21T13:01:46.679Z,33.49
2018-06-21T13:02:46.831Z,33.98
2018-06-21T13:03:46.953Z,34.83
2018-06-21T13:04:47.279Z,34.40
2018-06-21T13:05:47.436Z,33.64
2018-06-21T13:06:47.535Z,33.91
2018-06-21T13:07:47.812Z,33.91
2018-06-21T13:08:47.866Z,34.12
2018-06-21T13:09:48.155Z,32.37
2018-06-21T13:10:48.287Z,32.07
2018-06-21T13:11:48.627Z,31.97
2018-06-21T13:12:48.746Z,33.01
2018-06-21T13:13:48.854Z,32.41
2018-06-21T13:14:48.983Z,32.23
2018-06-21T13:15:49.247Z,31.95
2018-06-21T13:16:49.396Z,31.97
2018-06-21T13:17:49.582Z,31.71
2018-06-21T13:18:49.769Z,29.99
2018-06-21T13:19:49.840Z,28.45
2018-06-21T13:20:50.148Z,27.30
2018-06-21T13:21:50.366Z,25.45
2018-06-21T13:22:50.544Z,24.76
2018-06-21T13:23:50.784Z,24.87
2018-06-21T13:24:50.898Z,24.48
2018-06-21T13:25:51.062Z,25.05
2018-06-21T13:26:51.208Z,24.18
2018-06-21T13:27:51.415Z,24.66
2018-06-21T13:28:51.610Z,24.08
2018-06-21T13:29:51.755Z,24.57
2018-06-21T13:30:52.031Z,24.49
2018-06-21T13:31:52.165Z,23.91
2018-06-21T13:32:52.326Z,24.40
2018-06-21T13:33:52.594Z,24.00
2018-06-21T13:34:52.739Z,24.96
2018-06-21T13:35:52.969Z,24.57
2018-06-21T13:36:53.122Z,24.88
2018-06-21T13:37:53.262Z,24.49
2018-06-21T13:38:53.466Z,25.05
2018-06-21T13:39:53.669Z,26.39
2018-06-21T13:40:53.807Z,27.34
2018-06-21T13:41:54.931Z,27.51
2018-06-21T13:42:54.858Z,28.08
2018-06-21T13:43:54.360Z,27.92
2018-06-21T13:44:54.487Z,29.33
2018-06-21T13:45:54.707Z,29.74
2018-06-21T13:46:54.949Z,29.33
2018-06-21T13:47:55.145Z,29.61
2018-06-21T13:48:55.336Z,29.77
2018-06-21T13:49:55.597Z,29.38
2018-06-21T13:50:55.705Z,28.33
2018-06-21T13:51:55.924Z,28.33
2018-06-21T13:52:56.124Z,28.25
2018-06-21T13:53:56.268Z,28.05
2018-06-21T13:54:56.421Z,28.18
2018-06-21T13:55:56.618Z,27.86
2018-06-21T13:56:56.767Z,28.13
2018-06-21T13:57:56.890Z,29.44
2018-06-21T13:58:57.060Z,30.13
2018-06-21T13:59:57.322Z,29.57
2018-06-21T14:00:57.488Z,28.81
2018-06-21T14:01:57.726Z,28.70
2018-06-21T14:02:57.853Z,28.34
2018-06-21T14:03:57.968Z,28.22
2018-06-21T14:04:58.224Z,28.77
2018-06-21T14:05:58.396Z,29.52
2018-06-21T14:06:58.533Z,29.71
2018-06-21T14:07:58.807Z,30.57
2018-06-21T14:08:58.814Z,29.61
2018-06-21T14:09:59.039Z,30.36
2018-06-21T14:10:59.237Z,30.46
2018-06-21T14:11:59.464Z,30.39
2018-06-21T14:12:59.722Z,29.84
2018-06-21T14:13:59.826Z,29.08
2018-06-21T14:15:00.047Z,28.15
2018-06-21T14:16:00.154Z,27.19
2018-06-21T14:17:00.394Z,26.53
2018-06-21T14:18:00.435Z,25.85
2018-06-21T14:19:00.794Z,25.18
2018-06-21T14:20:00.918Z,24.99
2018-06-21T14:21:01.062Z,24.62
2018-06-21T14:22:01.273Z,23.63
2018-06-21T14:23:01.364Z,23.74
2018-06-21T14:24:01.603Z,23.55
2018-06-21T14:25:01.742Z,23.55
2018-06-21T14:26:02.042Z,23.55
2018-06-21T14:27:02.102Z,22.77
2018-06-21T14:28:02.348Z,22.76
2018-06-21T14:29:02.483Z,22.75
2018-06-21T14:30:02.714Z,23.62
2018-06-21T14:31:02.803Z,23.24
2018-06-21T14:32:03.044Z,22.26
2018-06-21T14:33:03.172Z,22.85
2018-06-21T14:34:03.359Z,22.85
2018-06-21T14:35:03.480Z,23.72
2018-06-21T14:36:03.686Z,24.02
2018-06-21T14:37:03.856Z,23.83
2018-06-21T14:38:03.994Z,24.12
2018-06-21T14:39:04.196Z,23.63
2018-06-21T14:40:04.476Z,23.72
2018-06-21T14:41:04.627Z,24.02
2018-06-21T14:42:04.708Z,23.43
2018-06-21T14:43:04.986Z,24.51
2018-06-21T14:44:05.034Z,24.01
2018-06-21T14:45:05.248Z,24.22
2018-06-21T14:46:05.529Z,23.65
2018-06-21T14:47:05.562Z,23.36
2018-06-21T14:48:05.844Z,23.85
2018-06-21T14:49:06.372Z,23.16
2018-06-21T14:50:06.340Z,23.54
2018-06-21T14:51:06.400Z,24.69
2018-06-21T14:52:06.566Z,24.80
2018-06-21T14:53:06.689Z,24.33
2018-06-21T14:54:06.870Z,23.94
2018-06-21T14:55:07.119Z,24.04
2018-06-21T14:56:07.289Z,24.33
2018-06-21T14:57:07.386Z,23.54
2018-06-21T14:58:07.748Z,23.43
2018-06-21T14:59:07.702Z,23.55
2018-06-21T15:00:07.876Z,23.75
2018-06-21T15:01:08.068Z,23.94
2018-06-21T15:02:08.252Z,24.33
2018-06-21T15:03:08.546Z,24.13
2018-06-21T15:04:08.624Z,24.44
2018-06-21T15:05:09.005Z,24.13
2018-06-21T15:06:09.110Z,23.65
2018-06-21T15:07:09.241Z,22.56
2018-06-21T15:08:09.485Z,23.73
2018-06-21T15:09:09.694Z,24.52
2018-06-21T15:10:09.849Z,23.33
2018-06-21T15:11:10.086Z,23.41
2018-06-21T15:12:10.105Z,24.46
2018-06-21T15:13:10.405Z,24.08
2018-06-21T15:14:10.637Z,24.56
2018-06-21T15:15:10.780Z,25.63
2018-06-21T15:16:11.102Z,25.71
2018-06-21T15:17:11.158Z,25.70
2018-06-21T15:18:11.298Z,25.60
2018-06-21T15:19:11.552Z,26.07
2018-06-21T15:20:11.816Z,26.45
2018-06-21T15:21:12.090Z,26.82
2018-06-21T15:22:12.129Z,26.90
2018-06-21T15:23:12.324Z,28.05
2018-06-21T15:24:12.446Z,28.64
2018-06-21T15:25:12.828Z,28.05
2018-06-21T15:26:12.814Z,27.28
2018-06-21T15:27:13.074Z,27.10
2018-06-21T15:28:13.381Z,26.52
2018-06-21T15:29:13.428Z,25.85
2018-06-21T15:30:13.864Z,25.76
2018-06-21T15:31:13.871Z,25.66
2018-06-21T15:32:13.996Z,26.15
2018-06-21T15:33:14.195Z,25.67
2018-06-21T15:34:14.659Z,25.67
2018-06-21T15:35:14.577Z,26.07
2018-06-21T15:36:14.798Z,25.68
2018-06-21T15:37:14.895Z,26.27
2018-06-21T15:38:15.120Z,25.31
2018-06-21T15:39:15.320Z,25.51
2018-06-21T15:40:15.647Z,23.96
2018-06-21T15:41:15.759Z,24.83
2018-06-21T15:42:15.843Z,25.02
2018-06-21T15:43:16.042Z,24.91
2018-06-21T15:44:16.253Z,25.88
2018-06-21T15:45:16.430Z,24.91
2018-06-21T15:46:16.589Z,25.01
2018-06-21T15:47:16.760Z,24.83
2018-06-21T15:48:17.051Z,25.31
2018-06-21T15:49:17.231Z,25.21
2018-06-21T15:50:17.342Z,25.68
2018-06-21T15:51:17.554Z,25.78
2018-06-21T15:52:17.780Z,25.30
2018-06-21T15:53:17.935Z,24.72
2018-06-21T15:54:18.104Z,24.82
2018-06-21T15:55:18.259Z,25.20